createdAt,value
2023-12-07T00:02:22.749Z,76.31
2023-12-07T00:04:49.252Z,76.07
2023-12-07T00:07:15.741Z,76.04
2023-12-07T00:09:42.212Z,75.75
2023-12-07T00:12:11.379Z,76.08
2023-12-07T00:14:37.749Z,75.51
2023-12-07T00:17:04.320Z,75.68
2023-12-07T00:19:30.855Z,76.24
2023-12-07T00:21:57.335Z,75.98
2023-12-07T00:24:23.741Z,75.87
2023-12-07T00:26:50.630Z,76.02
2023-12-07T00:29:17.079Z,75.47
2023-12-07T00:31:44.912Z,75.61
2023-12-07T00:34:11.410Z,75.74
2023-12-07T00:36:37.884Z,75.88
2023-12-07T00:39:05.259Z,76.00
2023-12-07T00:41:31.710Z,75.97
2023-12-07T00:43:58.143Z,76.26
2023-12-07T00:46:24.668Z,76.50
2023-12-07T00:48:51.104Z,76.17
2023-12-07T00:51:18.055Z,76.17
2023-12-07T00:53:44.462Z,75.99
2023-12-07T00:56:11.026Z,76.14
2023-12-07T00:58:39.469Z,75.73
2023-12-07T01:01:06.228Z,76.24
2023-12-07T01:03:32.664Z,75.59
2023-12-07T01:05:59.151Z,76.48
2023-12-07T01:08:25.775Z,75.78
2023-12-07T01:10:52.331Z,76.57
2023-12-07T01:13:18.819Z,76.10
2023-12-07T01:15:45.279Z,75.94
2023-12-07T01:18:11.744Z,76.20
2023-12-07T01:20:38.196Z,76.10
2023-12-07T01:23:04.616Z,76.28
2023-12-07T01:25:31.207Z,76.11
2023-12-07T01:27:58.010Z,76.27
2023-12-07T01:30:24.491Z,75.89
2023-12-07T01:32:50.944Z,75.93
2023-12-07T01:35:17.482Z,75.56
2023-12-07T01:41:09.582Z,76.14
2023-12-07T01:43:36.162Z,76.12
2023-12-07T01:46:03.049Z,75.93
2023-12-07T01:48:30.469Z,75.31
2023-12-07T01:50:59.141Z,75.18
2023-12-07T01:53:27.563Z,75.84
2023-12-07T01:55:54.818Z,75.83
2023-12-07T01:58:21.830Z,75.58
2023-12-07T02:00:48.669Z,75.82
2023-12-07T02:03:17.530Z,75.73
2023-12-07T02:05:47.026Z,75.65
2023-12-07T02:08:13.441Z,75.57
2023-12-07T02:10:40.174Z,75.86
2023-12-07T02:13:07.694Z,75.91
2023-12-07T02:15:34.376Z,76.07
2023-12-07T02:18:22.677Z,76.70
2023-12-07T02:21:09.242Z,76.67
2023-12-07T02:23:46.610Z,76.58
2023-12-07T02:26:20.678Z,76.57
2023-12-07T02:28:47.315Z,76.39
2023-12-07T02:31:14.338Z,76.58
2023-12-07T02:33:40.959Z,76.45
2023-12-07T02:36:07.755Z,76.54
2023-12-07T02:38:35.267Z,76.90
2023-12-07T02:41:02.486Z,76.35
2023-12-07T02:43:29.774Z,76.27
2023-12-07T02:45:56.430Z,77.03
2023-12-07T02:48:23.300Z,76.70
2023-12-07T02:50:49.818Z,76.46
2023-12-07T02:53:16.640Z,76.22
2023-12-07T02:55:43.087Z,75.93
2023-12-07T02:58:10.126Z,75.71
2023-12-07T03:00:36.584Z,75.93
2023-12-07T03:03:03.062Z,75.47
2023-12-07T03:05:29.506Z,75.96
2023-12-07T03:07:55.968Z,75.90
2023-12-07T03:10:22.422Z,75.48
2023-12-07T03:12:48.831Z,75.55
2023-12-07T03:15:15.297Z,75.97
2023-12-07T03:17:41.761Z,76.24
2023-12-07T03:20:09.466Z,76.15
2023-12-07T03:22:35.935Z,76.35
2023-12-07T03:25:02.529Z,76.82
2023-12-07T03:27:29.952Z,76.32
2023-12-07T03:29:56.524Z,76.38
2023-12-07T03:32:23.264Z,76.66
2023-12-07T03:34:49.947Z,77.16
2023-12-07T03:37:17.215Z,77.59
2023-12-07T03:39:43.717Z,77.58
2023-12-07T03:42:48.442Z,77.41
2023-12-07T03:44:56.783Z,77.34
2023-12-07T03:47:23.295Z,77.19
2023-12-07T03:49:49.828Z,77.24
2023-12-07T03:52:16.303Z,76.73
2023-12-07T03:54:42.741Z,77.27
2023-12-07T03:57:09.140Z,77.00
2023-12-07T03:59:37.618Z,77.66
2023-12-07T04:02:04.342Z,77.13
2023-12-07T04:04:30.808Z,77.21
2023-12-07T04:06:57.514Z,77.16
2023-12-07T04:09:24.464Z,77.18
2023-12-07T04:11:50.854Z,77.27
2023-12-07T04:14:17.249Z,77.46
2023-12-07T04:16:43.734Z,77.47
2023-12-07T04:19:10.187Z,76.84
2023-12-07T04:21:36.642Z,76.81
2023-12-07T04:24:03.162Z,76.33
2023-12-07T04:26:29.658Z,76.96
2023-12-07T04:28:56.105Z,77.06
2023-12-07T04:31:22.602Z,77.30
2023-12-07T04:33:49.289Z,77.21
2023-12-07T04:36:15.722Z,78.30
2023-12-07T04:38:42.162Z,78.81
2023-12-07T04:41:08.685Z,78.67
2023-12-07T04:43:35.206Z,78.66
2023-12-07T04:46:01.763Z,78.24
2023-12-07T04:48:28.183Z,78.63
2023-12-07T04:50:54.637Z,78.21
2023-12-07T04:53:21.046Z,78.20
2023-12-07T04:55:51.137Z,78.20
2023-12-07T04:58:17.578Z,78.12
2023-12-07T05:00:44.182Z,77.97
2023-12-07T05:03:10.635Z,78.23
2023-12-07T05:05:37.568Z,78.21
2023-12-07T05:08:04.224Z,78.14
2023-12-07T05:10:30.989Z,78.55
2023-12-07T05:12:58.180Z,78.62
2023-12-07T05:15:25.720Z,78.72
2023-12-07T05:17:52.237Z,78.57
2023-12-07T05:20:23.261Z,78.90
2023-12-07T05:22:49.720Z,78.63
2023-12-07T05:25:16.846Z,78.72
2023-12-07T05:27:43.356Z,78.91
2023-12-07T05:30:10.349Z,79.26
2023-12-07T05:32:36.881Z,78.62
2023-12-07T05:35:03.505Z,78.67
2023-12-07T05:37:29.931Z,79.15
2023-12-07T05:39:56.761Z,79.18
2023-12-07T05:42:23.378Z,78.70
2023-12-07T05:44:49.910Z,79.54
2023-12-07T05:47:16.462Z,79.85
2023-12-07T05:49:42.923Z,81.09
2023-12-07T05:52:09.468Z,80.94
2023-12-07T05:54:35.861Z,80.60
2023-12-07T05:57:03.080Z,80.18
2023-12-07T05:59:29.479Z,79.38
2023-12-07T06:01:55.985Z,79.20
2023-12-07T06:04:22.488Z,79.12
2023-12-07T06:06:49.005Z,79.79
2023-12-07T06:09:15.585Z,79.08
2023-12-07T06:11:42.027Z,78.98
2023-12-07T06:14:08.840Z,78.54
2023-12-07T06:16:35.294Z,78.51
2023-12-07T06:19:01.775Z,78.63
2023-12-07T06:21:30.721Z,79.26
2023-12-07T06:23:57.255Z,78.85
2023-12-07T06:26:23.766Z,78.79
2023-12-07T06:28:50.161Z,78.87
2023-12-07T06:31:20.867Z,77.94
2023-12-07T06:33:47.297Z,77.79
2023-12-07T06:36:22.196Z,77.50
2023-12-07T06:38:48.854Z,77.74
2023-12-07T06:41:16.879Z,77.90
2023-12-07T06:43:45.598Z,77.93
2023-12-07T06:46:14.288Z,77.80
2023-12-07T06:48:42.380Z,77.72
2023-12-07T06:51:08.975Z,77.66
2023-12-07T06:53:35.385Z,77.58
2023-12-07T06:56:01.847Z,77.62
2023-12-07T06:58:28.247Z,77.09
2023-12-07T07:00:54.663Z,77.27
2023-12-07T07:03:21.160Z,77.16
2023-12-07T07:05:47.615Z,77.58
2023-12-07T07:08:14.043Z,77.72
2023-12-07T07:10:40.506Z,77.70
2023-12-07T07:13:07.506Z,77.20
2023-12-07T07:15:34.682Z,77.20
2023-12-07T07:18:02.387Z,76.96
2023-12-07T07:20:28.916Z,77.49
2023-12-07T07:22:55.340Z,77.77
2023-12-07T07:25:21.787Z,77.91
2023-12-07T07:27:48.258Z,77.40
2023-12-07T07:30:14.888Z,77.34
2023-12-07T07:32:41.885Z,77.34
2023-12-07T07:35:08.809Z,77.62
2023-12-07T07:37:35.336Z,76.99
2023-12-07T07:40:02.144Z,76.90
2023-12-07T07:42:28.550Z,76.61
2023-12-07T07:44:54.977Z,76.57
2023-12-07T07:47:21.371Z,76.58
2023-12-07T07:49:47.809Z,76.78
2023-12-07T07:52:14.370Z,77.06
2023-12-07T07:54:40.828Z,77.25
2023-12-07T07:57:07.236Z,77.19
2023-12-07T07:59:33.681Z,77.23
2023-12-07T08:02:00.407Z,77.66
2023-12-07T08:04:26.893Z,77.19
2023-12-07T08:06:53.549Z,77.33
2023-12-07T08:09:19.936Z,77.54
2023-12-07T08:11:46.324Z,77.00
2023-12-07T08:14:13.863Z,76.98
2023-12-07T08:16:43.950Z,77.16
2023-12-07T08:19:10.420Z,77.07
2023-12-07T08:21:36.947Z,76.62
2023-12-07T08:24:04.626Z,76.79
2023-12-07T08:26:31.027Z,76.44
2023-12-07T08:28:57.457Z,76.84
2023-12-07T08:31:25.250Z,76.33
2023-12-07T08:33:52.740Z,76.27
2023-12-07T08:36:19.314Z,76.50
2023-12-07T08:38:45.801Z,76.02
2023-12-07T08:41:14.440Z,76.19
2023-12-07T08:43:41.133Z,76.50
2023-12-07T08:46:08.621Z,76.34
2023-12-07T08:48:37.252Z,76.00
2023-12-07T08:51:05.240Z,76.17
2023-12-07T08:53:31.879Z,76.13
2023-12-07T08:55:58.571Z,75.41
2023-12-07T08:58:25.043Z,75.68
2023-12-07T09:00:51.924Z,74.90
2023-12-07T09:03:18.391Z,75.26
2023-12-07T09:05:45.025Z,75.32
2023-12-07T09:08:11.644Z,74.91
2023-12-07T09:10:38.217Z,75.31
2023-12-07T09:13:04.712Z,75.27
2023-12-07T09:15:32.620Z,74.88
2023-12-07T09:17:59.395Z,75.27
2023-12-07T09:20:25.965Z,75.31
2023-12-07T09:22:52.892Z,75.88
2023-12-07T09:25:19.478Z,75.03
2023-12-07T09:27:46.016Z,75.01
2023-12-07T09:30:13.690Z,74.65
2023-12-07T09:32:43.422Z,74.69
2023-12-07T09:35:16.183Z,74.39
2023-12-07T09:37:43.243Z,74.47
2023-12-07T09:40:16.348Z,74.28
2023-12-07T09:42:43.832Z,74.63
2023-12-07T09:45:10.743Z,74.65
2023-12-07T09:47:39.077Z,74.38
2023-12-07T09:50:13.128Z,74.74
2023-12-07T09:52:41.161Z,74.42
2023-12-07T09:55:10.809Z,73.86
2023-12-07T09:57:40.662Z,74.31
2023-12-07T10:00:11.010Z,74.18
2023-12-07T10:02:40.466Z,74.02
2023-12-07T10:05:12.014Z,73.63
2023-12-07T10:07:41.894Z,73.85
2023-12-07T10:10:11.015Z,74.08
2023-12-07T10:12:47.512Z,73.61
2023-12-07T10:15:15.649Z,73.78
2023-12-07T10:17:59.581Z,74.64
2023-12-07T10:20:28.249Z,74.67
2023-12-07T10:23:07.350Z,74.58
2023-12-07T10:25:39.195Z,74.40
2023-12-07T10:28:08.604Z,73.92
2023-12-07T10:30:36.087Z,73.35
2023-12-07T10:33:06.277Z,72.72
2023-12-07T10:35:32.968Z,72.12
2023-12-07T10:37:59.598Z,72.57
2023-12-07T10:40:26.180Z,71.82
2023-12-07T10:42:57.538Z,71.43
2023-12-07T10:45:26.305Z,71.26
2023-12-07T10:47:54.846Z,71.03
2023-12-07T10:50:24.392Z,70.11
2023-12-07T10:52:57.009Z,70.50
2023-12-07T10:55:29.973Z,69.49
2023-12-07T10:57:57.288Z,68.93
2023-12-07T11:00:37.624Z,68.81
2023-12-07T11:03:11.544Z,68.30
2023-12-07T11:05:38.664Z,68.45
2023-12-07T11:08:10.980Z,68.40
2023-12-07T11:10:49.464Z,68.29
2023-12-07T11:13:21.378Z,68.25
2023-12-07T11:15:47.989Z,67.61
2023-12-07T11:18:15.517Z,67.27
2023-12-07T11:20:49.787Z,67.50
2023-12-07T11:23:22.097Z,67.14
2023-12-07T11:25:49.570Z,67.16
2023-12-07T11:28:16.254Z,67.68
2023-12-07T11:30:45.211Z,67.51
2023-12-07T11:33:13.252Z,67.20
2023-12-07T11:36:04.281Z,66.99
2023-12-07T11:38:30.831Z,66.43
2023-12-07T11:40:57.838Z,67.29
2023-12-07T11:43:33.423Z,66.75
2023-12-07T11:46:00.767Z,67.08
2023-12-07T11:48:27.443Z,66.49
2023-12-07T11:51:01.631Z,66.44
2023-12-07T11:53:36.131Z,66.46
2023-12-07T11:56:04.796Z,66.86
2023-12-07T11:58:36.199Z,66.96
2023-12-07T12:01:05.740Z,66.79
2023-12-07T12:03:37.242Z,67.17
2023-12-07T12:06:06.194Z,67.12
2023-12-07T12:08:32.952Z,66.66
2023-12-07T12:10:59.537Z,66.45
2023-12-07T12:13:30.900Z,66.69
2023-12-07T12:16:01.564Z,66.69
2023-12-07T12:18:30.519Z,66.39
2023-12-07T12:20:58.686Z,65.92
2023-12-07T12:23:25.270Z,65.89
2023-12-07T12:25:52.297Z,66.08
2023-12-07T12:28:22.897Z,65.99
2023-12-07T12:30:49.853Z,65.82
2023-12-07T12:33:17.579Z,65.94
2023-12-07T12:35:44.213Z,66.41
2023-12-07T12:38:16.053Z,66.36
2023-12-07T12:40:46.201Z,65.73
2023-12-07T12:43:12.696Z,65.84
2023-12-07T12:45:39.700Z,65.66
2023-12-07T12:48:06.418Z,65.76
2023-12-07T12:50:40.942Z,65.76
2023-12-07T12:53:11.977Z,65.37
2023-12-07T12:55:40.993Z,65.26
2023-12-07T12:58:09.371Z,64.67
2023-12-07T13:00:39.315Z,64.32
2023-12-07T13:03:07.223Z,64.75
2023-12-07T13:05:35.558Z,64.72
2023-12-07T13:08:12.267Z,65.14
2023-12-07T13:10:42.296Z,64.90
2023-12-07T13:13:09.036Z,64.93
2023-12-07T13:15:35.821Z,64.66
2023-12-07T13:18:05.602Z,64.31
2023-12-07T13:20:45.846Z,64.60
2023-12-07T13:23:16.658Z,64.73
2023-12-07T13:25:43.252Z,64.66
2023-12-07T13:28:12.938Z,64.51
2023-12-07T13:30:40.135Z,64.70
2023-12-07T13:33:18.176Z,64.36
2023-12-07T13:35:53.248Z,64.22
2023-12-07T13:38:21.390Z,64.30
2023-12-07T13:40:48.190Z,64.57
2023-12-07T13:43:14.872Z,64.76
2023-12-07T13:45:44.863Z,65.03
2023-12-07T13:48:11.428Z,65.03
2023-12-07T13:50:37.995Z,64.94
2023-12-07T13:53:04.711Z,65.36
2023-12-07T13:55:31.420Z,65.72
2023-12-07T13:57:58.596Z,65.43
2023-12-07T14:00:25.333Z,66.14
2023-12-07T14:02:52.025Z,66.02
2023-12-07T14:05:22.696Z,65.35
2023-12-07T14:07:49.533Z,65.49
2023-12-07T14:10:16.361Z,65.33
2023-12-07T14:12:42.864Z,64.96
2023-12-07T14:15:10.803Z,65.43
2023-12-07T14:17:47.232Z,65.30
2023-12-07T14:20:28.675Z,65.08
2023-12-07T14:23:06.180Z,65.59
2023-12-07T14:25:32.719Z,65.06
2023-12-07T14:27:59.588Z,65.07
2023-12-07T14:30:26.163Z,64.88
2023-12-07T14:32:53.519Z,65.21
2023-12-07T14:35:21.433Z,65.60
2023-12-07T14:37:48.807Z,66.00
2023-12-07T14:40:18.736Z,65.86
2023-12-07T14:42:46.252Z,65.61
2023-12-07T14:45:12.913Z,65.95
2023-12-07T14:47:39.681Z,66.29
2023-12-07T14:50:06.942Z,66.97
2023-12-07T14:52:33.536Z,66.80
2023-12-07T14:55:00.524Z,67.73
2023-12-07T14:57:26.953Z,66.63
2023-12-07T14:59:55.247Z,66.55
2023-12-07T15:02:22.075Z,66.31
2023-12-07T15:04:49.953Z,66.09
2023-12-07T15:07:17.697Z,66.41
2023-12-07T15:09:44.225Z,65.95
2023-12-07T15:12:10.701Z,66.34
2023-12-07T15:14:38.917Z,66.24
2023-12-07T15:17:09.724Z,66.39
2023-12-07T15:19:40.205Z,66.43
2023-12-07T15:22:07.752Z,67.20
2023-12-07T15:24:36.530Z,67.20
2023-12-07T15:27:05.067Z,66.75
2023-12-07T15:29:32.250Z,66.90
2023-12-07T15:31:58.766Z,67.30
2023-12-07T15:34:33.418Z,67.06
2023-12-07T15:37:05.207Z,66.54
2023-12-07T15:39:31.821Z,66.77
2023-12-07T15:41:59.118Z,67.15
2023-12-07T15:44:29.611Z,66.98
2023-12-07T15:46:58.649Z,67.63
2023-12-07T15:49:25.663Z,68.32
2023-12-07T15:51:53.114Z,69.39
2023-12-07T15:54:30.969Z,68.47
2023-12-07T15:57:04.404Z,68.37
2023-12-07T15:59:30.886Z,67.92
2023-12-07T16:01:57.314Z,68.17
2023-12-07T16:04:31.893Z,67.84
2023-12-07T16:07:03.854Z,67.90
2023-12-07T16:09:31.507Z,67.85
2023-12-07T16:11:58.177Z,68.96
2023-12-07T16:14:29.982Z,68.87
2023-12-07T16:16:58.685Z,68.50
2023-12-07T16:19:25.929Z,68.74
2023-12-07T16:21:52.695Z,68.10
2023-12-07T16:24:19.597Z,68.08
2023-12-07T16:26:46.092Z,67.95
2023-12-07T16:29:12.641Z,68.06
2023-12-07T16:31:39.052Z,68.28
2023-12-07T16:34:05.693Z,68.86
2023-12-07T16:36:32.248Z,68.95
2023-12-07T16:39:02.674Z,69.46
2023-12-07T16:41:34.492Z,69.07
2023-12-07T16:44:05.416Z,68.97
2023-12-07T16:46:31.817Z,69.25
2023-12-07T16:48:58.273Z,69.77
2023-12-07T16:51:24.938Z,69.55
2023-12-07T16:53:51.613Z,69.57
2023-12-07T16:56:18.153Z,69.45
2023-12-07T16:58:44.526Z,70.31
2023-12-07T17:01:11.480Z,69.85
2023-12-07T17:03:38.983Z,70.53
2023-12-07T17:06:07.305Z,70.03
2023-12-07T17:08:33.973Z,70.15
2023-12-07T17:11:00.509Z,70.25
2023-12-07T17:13:27.393Z,70.46
2023-12-07T17:15:56.514Z,70.22
2023-12-07T17:18:24.790Z,70.07
2023-12-07T17:20:51.587Z,70.40
2023-12-07T17:23:18.530Z,69.75
2023-12-07T17:25:45.024Z,70.35
2023-12-07T17:28:11.560Z,69.89
2023-12-07T17:30:38.071Z,70.36
2023-12-07T17:33:04.713Z,70.09
2023-12-07T17:35:31.283Z,69.67
2023-12-07T17:37:58.357Z,70.10
2023-12-07T17:40:24.778Z,70.67
2023-12-07T17:42:51.200Z,70.06
2023-12-07T17:45:18.156Z,69.96
2023-12-07T17:47:46.591Z,70.14
2023-12-07T17:50:13.284Z,70.34
2023-12-07T17:52:39.708Z,70.24
2023-12-07T17:55:06.274Z,70.37
2023-12-07T17:57:32.732Z,70.53
2023-12-07T17:59:59.171Z,70.64
2023-12-07T18:02:25.693Z,71.19
2023-12-07T18:04:52.180Z,70.89
2023-12-07T18:07:18.590Z,70.46
2023-12-07T18:09:45.141Z,70.61
2023-12-07T18:12:12.205Z,71.21
2023-12-07T18:14:38.833Z,70.97
2023-12-07T18:17:07.241Z,70.76
2023-12-07T18:19:33.676Z,70.80
2023-12-07T18:22:00.724Z,71.41
2023-12-07T18:24:27.227Z,70.93
2023-12-07T18:26:53.763Z,71.20
2023-12-07T18:29:20.206Z,70.89
2023-12-07T18:31:49.369Z,71.16
2023-12-07T18:34:15.890Z,70.02
2023-12-07T18:36:43.003Z,71.49
2023-12-07T18:39:09.999Z,71.45
2023-12-07T18:41:37.511Z,71.49
2023-12-07T18:44:04.300Z,71.39
2023-12-07T18:46:31.073Z,71.24
2023-12-07T18:48:58.369Z,71.55
2023-12-07T18:51:26.090Z,72.23
2023-12-07T18:53:52.616Z,72.36
2023-12-07T18:56:19.138Z,72.16
2023-12-07T18:58:45.627Z,72.13
2023-12-07T19:01:12.238Z,71.53
2023-12-07T19:03:39.675Z,71.85
2023-12-07T19:06:06.969Z,71.60
2023-12-07T19:08:33.632Z,72.43
2023-12-07T19:11:00.025Z,72.26
2023-12-07T19:13:26.427Z,72.11
2023-12-07T19:15:52.997Z,72.67
2023-12-07T19:18:19.994Z,71.96
2023-12-07T19:20:46.679Z,72.09
2023-12-07T19:23:13.164Z,72.23
2023-12-07T19:25:39.801Z,72.08
2023-12-07T19:28:07.144Z,72.39
2023-12-07T19:30:33.696Z,72.25
2023-12-07T19:33:03.746Z,72.45
2023-12-07T19:35:30.785Z,72.98
2023-12-07T19:37:57.384Z,73.18
2023-12-07T19:40:23.889Z,73.05
2023-12-07T19:42:50.356Z,72.77
2023-12-07T19:45:16.878Z,72.93
2023-12-07T19:47:44.168Z,72.83
2023-12-07T19:50:12.005Z,73.01
2023-12-07T19:52:38.527Z,73.28
2023-12-07T19:55:07.575Z,73.17
2023-12-07T19:57:34.744Z,73.55
2023-12-07T20:00:01.333Z,73.02
2023-12-07T20:02:27.875Z,73.35
2023-12-07T20:04:54.486Z,73.44
2023-12-07T20:07:20.977Z,73.05
2023-12-07T20:09:47.704Z,73.31
2023-12-07T20:12:14.808Z,74.53
2023-12-07T20:14:41.378Z,74.18
2023-12-07T20:17:08.488Z,73.48
2023-12-07T20:19:35.492Z,73.31
2023-12-07T20:22:03.660Z,73.52
2023-12-07T20:24:30.195Z,73.95
2023-12-07T20:26:56.921Z,73.70
2023-12-07T20:29:27.079Z,74.07
2023-12-07T20:31:53.661Z,73.90
2023-12-07T20:34:20.118Z,73.85
2023-12-07T20:36:46.632Z,73.44
2023-12-07T20:39:13.201Z,73.36
2023-12-07T20:41:39.666Z,73.32
2023-12-07T20:44:07.873Z,73.36
2023-12-07T20:46:34.382Z,73.02
2023-12-07T20:49:01.062Z,73.36
2023-12-07T20:51:27.756Z,73.33
2023-12-07T20:53:54.257Z,72.83
2023-12-07T20:56:22.248Z,73.42
2023-12-07T20:58:49.778Z,72.76
2023-12-07T21:01:16.313Z,73.69
2023-12-07T21:03:42.895Z,73.43
2023-12-07T21:06:25.434Z,73.09
2023-12-07T21:08:53.750Z,73.51
2023-12-07T21:11:20.330Z,73.26
2023-12-07T21:13:46.845Z,73.05
2023-12-07T21:16:13.365Z,73.56
2023-12-07T21:18:39.919Z,73.73
2023-12-07T21:21:06.773Z,73.56
2023-12-07T21:23:33.198Z,73.46
2023-12-07T21:26:01.160Z,73.72
2023-12-07T21:28:27.596Z,72.84
2023-12-07T21:30:54.015Z,73.57
2023-12-07T21:33:21.487Z,73.30
2023-12-07T21:35:48.114Z,73.17
2023-12-07T21:38:14.771Z,73.21
2023-12-07T21:40:41.263Z,73.85
2023-12-07T21:43:07.828Z,73.96
2023-12-07T21:45:35.450Z,73.91
2023-12-07T21:48:02.367Z,74.29
2023-12-07T21:50:28.983Z,74.23
2023-12-07T21:52:55.402Z,73.22
2023-12-07T21:55:21.820Z,73.21
2023-12-07T21:57:48.253Z,73.01
2023-12-07T22:00:17.026Z,73.00
2023-12-07T22:02:43.520Z,73.07
2023-12-07T22:05:09.983Z,72.44
2023-12-07T22:07:36.400Z,73.07
2023-12-07T22:10:13.681Z,72.98
2023-12-07T22:12:45.024Z,73.14
2023-12-07T22:15:14.573Z,72.86
2023-12-07T22:17:41.303Z,72.55
2023-12-07T22:20:11.610Z,73.38
2023-12-07T22:22:38.482Z,72.80
2023-12-07T22:25:05.644Z,72.88
2023-12-07T22:27:33.066Z,72.97
2023-12-07T22:29:59.558Z,72.89
2023-12-07T22:32:26.122Z,73.05
2023-12-07T22:34:52.908Z,72.92
2023-12-07T22:37:19.754Z,72.87
2023-12-07T22:39:46.200Z,73.53
2023-12-07T22:42:12.727Z,73.26
2023-12-07T22:44:39.404Z,73.28
2023-12-07T22:47:05.885Z,73.03
2023-12-07T22:49:32.772Z,72.67
2023-12-07T22:51:59.471Z,72.58
2023-12-07T22:54:28.919Z,72.67
2023-12-07T22:56:55.346Z,72.44
2023-12-07T22:59:21.751Z,72.58
2023-12-07T23:01:48.179Z,72.51
2023-12-07T23:04:14.689Z,72.36
2023-12-07T23:06:41.865Z,73.11
2023-12-07T23:09:08.350Z,72.68
2023-12-07T23:11:34.832Z,72.98
2023-12-07T23:14:01.290Z,73.19
2023-12-07T23:16:28.273Z,73.43
2023-12-07T23:18:54.990Z,73.08
2023-12-07T23:21:22.613Z,72.95
2023-12-07T23:23:49.208Z,73.45
2023-12-07T23:26:16.459Z,73.08
2023-12-07T23:28:43.132Z,73.00
2023-12-07T23:31:09.662Z,72.97
2023-12-07T23:33:36.181Z,73.13
2023-12-07T23:36:02.833Z,73.33
2023-12-07T23:38:29.420Z,73.33
2023-12-07T23:40:55.852Z,72.58
2023-12-07T23:43:22.976Z,72.84
2023-12-07T23:45:49.535Z,73.15
2023-12-07T23:48:16.145Z,72.99
2023-12-07T23:50:42.756Z,73.15
2023-12-07T23:53:09.230Z,73.40
2023-12-07T23:55:35.701Z,73.64
2023-12-07T23:58:02.281Z,73.90
